Terminal Aerodrome Forecast
Issued by NWS Charleston, WV

Current Version | Previous Version | Graphics & Text | Print | Product List | Glossary On
Versions: 1 2 3 4 5 6 7 8 9 10 11 12 13 14 15 16 17 18 19 20 21 22 23 24 25 26 27 28 29 30 31
000
FTUS41 KRLX 230302 AAA
TAFBKW
TAF AMD
KBKW 230302Z 2303/2324 24007KT P6SM BKN040
     FM230500 25007KT 5SM SHRA VCTS BKN030CB
     FM231500 25009KT 6SM BR BKN030=

USA.gov is the U.S. government's official web portal to all federal, state and local government web resources and services.